sensor_id;sensor_type;location;lat;lon;timestamp;P1;durP1;ratioP1;P2;durP2;ratioP2
30818;SDS011;17546;42.674;23.284;2024-02-14T00:01:52;11.13;;;7.57;;
30818;SDS011;17546;42.674;23.284;2024-02-14T00:04:18;11.25;;;6.95;;
30818;SDS011;17546;42.674;23.284;2024-02-14T00:06:44;12.82;;;8.40;;
30818;SDS011;17546;42.674;23.284;2024-02-14T00:09:10;13.05;;;7.82;;
30818;SDS011;17546;42.674;23.284;2024-02-14T00:11:36;12.30;;;8.00;;
30818;SDS011;17546;42.674;23.284;2024-02-14T00:14:02;14.02;;;7.80;;
30818;SDS011;17546;42.674;23.284;2024-02-14T00:16:27;12.82;;;7.72;;
30818;SDS011;17546;42.674;23.284;2024-02-14T00:18:55;12.07;;;7.78;;
30818;SDS011;17546;42.674;23.284;2024-02-14T00:21:22;14.05;;;8.05;;
30818;SDS011;17546;42.674;23.284;2024-02-14T00:23:47;14.82;;;8.38;;
30818;SDS011;17546;42.674;23.284;2024-02-14T00:26:13;14.50;;;8.38;;
30818;SDS011;17546;42.674;23.284;2024-02-14T00:28:38;12.18;;;7.88;;
30818;SDS011;17546;42.674;23.284;2024-02-14T00:31:04;13.57;;;8.82;;
30818;SDS011;17546;42.674;23.284;2024-02-14T00:33:30;13.00;;;8.20;;
30818;SDS011;17546;42.674;23.284;2024-02-14T00:35:55;10.40;;;7.50;;
30818;SDS011;17546;42.674;23.284;2024-02-14T00:38:21;10.27;;;7.60;;
30818;SDS011;17546;42.674;23.284;2024-02-14T00:40:47;11.23;;;8.07;;
30818;SDS011;17546;42.674;23.284;2024-02-14T00:43:12;12.77;;;8.27;;
30818;SDS011;17546;42.674;23.284;2024-02-14T00:45:37;13.85;;;8.15;;
30818;SDS011;17546;42.674;23.284;2024-02-14T00:48:04;11.60;;;8.05;;
30818;SDS011;17546;42.674;23.284;2024-02-14T00:50:30;12.48;;;8.35;;
30818;SDS011;17546;42.674;23.284;2024-02-14T00:52:55;14.20;;;8.38;;
30818;SDS011;17546;42.674;23.284;2024-02-14T00:55:21;11.90;;;8.48;;
30818;SDS011;17546;42.674;23.284;2024-02-14T00:57:47;12.98;;;8.73;;
30818;SDS011;17546;42.674;23.284;2024-02-14T01:00:12;12.07;;;8.27;;
30818;SDS011;17546;42.674;23.284;2024-02-14T01:02:38;14.32;;;8.52;;
30818;SDS011;17546;42.674;23.284;2024-02-14T01:05:04;16.30;;;8.10;;
30818;SDS011;17546;42.674;23.284;2024-02-14T01:07:30;12.32;;;8.70;;
30818;SDS011;17546;42.674;23.284;2024-02-14T01:09:55;13.30;;;8.88;;
30818;SDS011;17546;42.674;23.284;2024-02-14T01:12:21;11.48;;;8.13;;
30818;SDS011;17546;42.674;23.284;2024-02-14T01:14:46;11.60;;;8.38;;
30818;SDS011;17546;42.674;23.284;2024-02-14T01:17:12;18.13;;;9.60;;
30818;SDS011;17546;42.674;23.284;2024-02-14T01:19:37;13.20;;;8.10;;
30818;SDS011;17546;42.674;23.284;2024-02-14T01:22:03;12.90;;;8.85;;
30818;SDS011;17546;42.674;23.284;2024-02-14T01:24:28;12.95;;;8.43;;
30818;SDS011;17546;42.674;23.284;2024-02-14T01:26:55;13.20;;;8.88;;
30818;SDS011;17546;42.674;23.284;2024-02-14T01:29:21;13.25;;;9.23;;
30818;SDS011;17546;42.674;23.284;2024-02-14T01:31:47;13.88;;;9.27;;
30818;SDS011;17546;42.674;23.284;2024-02-14T01:34:12;12.95;;;8.82;;
30818;SDS011;17546;42.674;23.284;2024-02-14T01:36:38;12.10;;;8.93;;
30818;SDS011;17546;42.674;23.284;2024-02-14T01:39:03;17.60;;;9.10;;
30818;SDS011;17546;42.674;23.284;2024-02-14T01:41:38;15.10;;;9.13;;
30818;SDS011;17546;42.674;23.284;2024-02-14T01:44:03;16.38;;;9.10;;
30818;SDS011;17546;42.674;23.284;2024-02-14T01:46:29;18.48;;;9.20;;
30818;SDS011;17546;42.674;23.284;2024-02-14T01:48:55;16.52;;;9.68;;
30818;SDS011;17546;42.674;23.284;2024-02-14T01:51:22;15.38;;;9.75;;
30818;SDS011;17546;42.674;23.284;2024-02-14T01:53:49;14.35;;;10.10;;
30818;SDS011;17546;42.674;23.284;2024-02-14T01:56:16;13.00;;;9.35;;
30818;SDS011;17546;42.674;23.284;2024-02-14T01:58:42;16.15;;;9.45;;
30818;SDS011;17546;42.674;23.284;2024-02-14T02:01:08;15.88;;;9.88;;
30818;SDS011;17546;42.674;23.284;2024-02-14T02:03:35;14.73;;;9.85;;
30818;SDS011;17546;42.674;23.284;2024-02-14T02:06:02;13.88;;;9.23;;
30818;SDS011;17546;42.674;23.284;2024-02-14T02:08:30;13.48;;;9.10;;
30818;SDS011;17546;42.674;23.284;2024-02-14T02:10:57;15.20;;;9.68;;
30818;SDS011;17546;42.674;23.284;2024-02-14T02:13:23;14.25;;;9.73;;
30818;SDS011;17546;42.674;23.284;2024-02-14T02:15:48;15.88;;;9.88;;
30818;SDS011;17546;42.674;23.284;2024-02-14T02:18:14;13.45;;;9.02;;
30818;SDS011;17546;42.674;23.284;2024-02-14T02:20:40;14.15;;;9.45;;
30818;SDS011;17546;42.674;23.284;2024-02-14T02:23:11;14.57;;;8.95;;
30818;SDS011;17546;42.674;23.284;2024-02-14T02:25:41;12.52;;;8.95;;
30818;SDS011;17546;42.674;23.284;2024-02-14T02:28:07;15.68;;;9.23;;
30818;SDS011;17546;42.674;23.284;2024-02-14T02:30:34;14.18;;;9.23;;
30818;SDS011;17546;42.674;23.284;2024-02-14T02:33:00;15.20;;;9.65;;
30818;SDS011;17546;42.674;23.284;2024-02-14T02:35:27;14.43;;;9.15;;
30818;SDS011;17546;42.674;23.284;2024-02-14T02:37:53;15.68;;;9.02;;
30818;SDS011;17546;42.674;23.284;2024-02-14T02:40:19;17.10;;;9.70;;
30818;SDS011;17546;42.674;23.284;2024-02-14T02:42:46;13.50;;;9.10;;
30818;SDS011;17546;42.674;23.284;2024-02-14T02:45:12;12.93;;;8.80;;
30818;SDS011;17546;42.674;23.284;2024-02-14T02:47:38;16.38;;;8.98;;
30818;SDS011;17546;42.674;23.284;2024-02-14T02:50:05;12.57;;;9.27;;
30818;SDS011;17546;42.674;23.284;2024-02-14T02:52:31;17.42;;;9.10;;
30818;SDS011;17546;42.674;23.284;2024-02-14T02:54:56;15.90;;;9.70;;
30818;SDS011;17546;42.674;23.284;2024-02-14T02:57:22;14.13;;;9.70;;
30818;SDS011;17546;42.674;23.284;2024-02-14T02:59:48;15.43;;;9.73;;
30818;SDS011;17546;42.674;23.284;2024-02-14T03:02:16;17.30;;;9.95;;
30818;SDS011;17546;42.674;23.284;2024-02-14T03:04:42;16.65;;;10.25;;
30818;SDS011;17546;42.674;23.284;2024-02-14T03:07:10;15.27;;;9.70;;
30818;SDS011;17546;42.674;23.284;2024-02-14T03:09:36;13.57;;;9.68;;
30818;SDS011;17546;42.674;23.284;2024-02-14T03:12:02;13.30;;;9.65;;
30818;SDS011;17546;42.674;23.284;2024-02-14T03:14:31;14.55;;;9.55;;
30818;SDS011;17546;42.674;23.284;2024-02-14T03:17:01;16.35;;;10.10;;
30818;SDS011;17546;42.674;23.284;2024-02-14T03:19:27;15.40;;;10.02;;
30818;SDS011;17546;42.674;23.284;2024-02-14T03:21:54;16.10;;;10.18;;
30818;SDS011;17546;42.674;23.284;2024-02-14T03:24:20;16.50;;;10.32;;
30818;SDS011;17546;42.674;23.284;2024-02-14T03:26:45;14.98;;;10.32;;
30818;SDS011;17546;42.674;23.284;2024-02-14T03:29:11;17.55;;;9.65;;
30818;SDS011;17546;42.674;23.284;2024-02-14T03:31:37;15.85;;;9.75;;
30818;SDS011;17546;42.674;23.284;2024-02-14T03:34:02;15.48;;;9.55;;
30818;SDS011;17546;42.674;23.284;2024-02-14T03:36:28;17.67;;;10.02;;
30818;SDS011;17546;42.674;23.284;2024-02-14T03:38:55;16.38;;;9.98;;
30818;SDS011;17546;42.674;23.284;2024-02-14T03:41:22;18.50;;;9.55;;
30818;SDS011;17546;42.674;23.284;2024-02-14T03:43:47;16.15;;;9.40;;
30818;SDS011;17546;42.674;23.284;2024-02-14T03:46:14;18.95;;;9.20;;
30818;SDS011;17546;42.674;23.284;2024-02-14T03:48:43;13.85;;;9.05;;
30818;SDS011;17546;42.674;23.284;2024-02-14T03:51:08;14.65;;;9.05;;
30818;SDS011;17546;42.674;23.284;2024-02-14T03:53:34;14.38;;;9.48;;
30818;SDS011;17546;42.674;23.284;2024-02-14T03:55:59;16.38;;;10.45;;
30818;SDS011;17546;42.674;23.284;2024-02-14T03:58:25;14.93;;;10.02;;
30818;SDS011;17546;42.674;23.284;2024-02-14T04:00:51;17.33;;;10.98;;
30818;SDS011;17546;42.674;23.284;2024-02-14T04:03:17;17.35;;;9.57;;
30818;SDS011;17546;42.674;23.284;2024-02-14T04:05:43;16.88;;;9.68;;
30818;SDS011;17546;42.674;23.284;2024-02-14T04:08:09;15.32;;;10.40;;
30818;SDS011;17546;42.674;23.284;2024-02-14T04:10:38;15.65;;;9.32;;
30818;SDS011;17546;42.674;23.284;2024-02-14T04:13:03;15.13;;;10.57;;
30818;SDS011;17546;42.674;23.284;2024-02-14T04:15:30;14.60;;;10.15;;
30818;SDS011;17546;42.674;23.284;2024-02-14T04:17:58;17.30;;;10.40;;
30818;SDS011;17546;42.674;23.284;2024-02-14T04:20:27;14.48;;;9.65;;
30818;SDS011;17546;42.674;23.284;2024-02-14T04:22:53;15.38;;;9.90;;
30818;SDS011;17546;42.674;23.284;2024-02-14T04:25:18;15.65;;;10.40;;
30818;SDS011;17546;42.674;23.284;2024-02-14T04:27:43;16.88;;;11.25;;
30818;SDS011;17546;42.674;23.284;2024-02-14T04:30:09;16.38;;;10.40;;
30818;SDS011;17546;42.674;23.284;2024-02-14T04:32:35;15.02;;;10.93;;
30818;SDS011;17546;42.674;23.284;2024-02-14T04:35:01;20.90;;;13.38;;
30818;SDS011;17546;42.674;23.284;2024-02-14T04:37:26;17.20;;;11.75;;
30818;SDS011;17546;42.674;23.284;2024-02-14T04:39:52;16.35;;;11.40;;
30818;SDS011;17546;42.674;23.284;2024-02-14T04:42:26;21.35;;;11.93;;
30818;SDS011;17546;42.674;23.284;2024-02-14T04:44:51;19.15;;;12.63;;
30818;SDS011;17546;42.674;23.284;2024-02-14T04:47:17;21.85;;;13.23;;
30818;SDS011;17546;42.674;23.284;2024-02-14T04:49:42;21.15;;;14.07;;
30818;SDS011;17546;42.674;23.284;2024-02-14T04:52:08;21.15;;;13.25;;
30818;SDS011;17546;42.674;23.284;2024-02-14T04:54:33;23.75;;;13.00;;
30818;SDS011;17546;42.674;23.284;2024-02-14T04:56:59;19.55;;;12.38;;
30818;SDS011;17546;42.674;23.284;2024-02-14T04:59:24;17.42;;;12.30;;
30818;SDS011;17546;42.674;23.284;2024-02-14T05:01:50;19.63;;;13.07;;
30818;SDS011;17546;42.674;23.284;2024-02-14T05:04:16;19.40;;;12.32;;
30818;SDS011;17546;42.674;23.284;2024-02-14T05:06:42;23.33;;;13.80;;
30818;SDS011;17546;42.674;23.284;2024-02-14T05:09:08;29.75;;;15.10;;
30818;SDS011;17546;42.674;23.284;2024-02-14T05:11:36;18.42;;;13.20;;
30818;SDS011;17546;42.674;23.284;2024-02-14T05:14:01;19.23;;;12.48;;
30818;SDS011;17546;42.674;23.284;2024-02-14T05:16:27;21.67;;;13.50;;
30818;SDS011;17546;42.674;23.284;2024-02-14T05:18:53;25.73;;;14.15;;
30818;SDS011;17546;42.674;23.284;2024-02-14T05:21:21;25.20;;;12.02;;
30818;SDS011;17546;42.674;23.284;2024-02-14T05:23:47;21.02;;;13.85;;
30818;SDS011;17546;42.674;23.284;2024-02-14T05:26:13;19.45;;;13.50;;
30818;SDS011;17546;42.674;23.284;2024-02-14T05:28:38;20.10;;;13.65;;
30818;SDS011;17546;42.674;23.284;2024-02-14T05:31:04;21.20;;;14.20;;
30818;SDS011;17546;42.674;23.284;2024-02-14T05:33:30;21.75;;;14.13;;
30818;SDS011;17546;42.674;23.284;2024-02-14T05:35:56;25.17;;;15.00;;
30818;SDS011;17546;42.674;23.284;2024-02-14T05:38:21;21.10;;;13.68;;
30818;SDS011;17546;42.674;23.284;2024-02-14T05:40:50;21.60;;;14.32;;
30818;SDS011;17546;42.674;23.284;2024-02-14T05:43:16;21.75;;;13.90;;
30818;SDS011;17546;42.674;23.284;2024-02-14T05:45:43;20.05;;;13.63;;
30818;SDS011;17546;42.674;23.284;2024-02-14T05:48:09;23.08;;;13.65;;
30818;SDS011;17546;42.674;23.284;2024-02-14T05:50:34;20.20;;;13.40;;
30818;SDS011;17546;42.674;23.284;2024-02-14T05:53:00;20.35;;;13.35;;
30818;SDS011;17546;42.674;23.284;2024-02-14T05:55:29;20.98;;;13.90;;
30818;SDS011;17546;42.674;23.284;2024-02-14T05:57:55;21.02;;;14.07;;
30818;SDS011;17546;42.674;23.284;2024-02-14T06:00:22;22.83;;;13.93;;
30818;SDS011;17546;42.674;23.284;2024-02-14T06:02:48;18.52;;;12.73;;
30818;SDS011;17546;42.674;23.284;2024-02-14T06:05:13;19.90;;;12.55;;
30818;SDS011;17546;42.674;23.284;2024-02-14T06:07:39;18.85;;;12.93;;
30818;SDS011;17546;42.674;23.284;2024-02-14T06:10:06;18.80;;;13.32;;
30818;SDS011;17546;42.674;23.284;2024-02-14T06:12:32;21.58;;;14.10;;
30818;SDS011;17546;42.674;23.284;2024-02-14T06:14:58;21.65;;;12.88;;
30818;SDS011;17546;42.674;23.284;2024-02-14T06:17:24;20.88;;;12.52;;
30818;SDS011;17546;42.674;23.284;2024-02-14T06:19:51;22.30;;;12.82;;
30818;SDS011;17546;42.674;23.284;2024-02-14T06:22:16;22.08;;;13.75;;
30818;SDS011;17546;42.674;23.284;2024-02-14T06:24:42;23.15;;;13.23;;
30818;SDS011;17546;42.674;23.284;2024-02-14T06:27:07;15.80;;;11.73;;
30818;SDS011;17546;42.674;23.284;2024-02-14T06:29:33;18.02;;;11.77;;
30818;SDS011;17546;42.674;23.284;2024-02-14T06:31:58;17.77;;;11.90;;
30818;SDS011;17546;42.674;23.284;2024-02-14T06:34:24;14.95;;;10.65;;
30818;SDS011;17546;42.674;23.284;2024-02-14T06:36:51;23.95;;;11.70;;
30818;SDS011;17546;42.674;23.284;2024-02-14T06:39:16;22.77;;;12.05;;
30818;SDS011;17546;42.674;23.284;2024-02-14T06:41:42;19.60;;;12.35;;
30818;SDS011;17546;42.674;23.284;2024-02-14T06:44:10;16.48;;;11.50;;
30818;SDS011;17546;42.674;23.284;2024-02-14T06:46:35;18.15;;;11.60;;
30818;SDS011;17546;42.674;23.284;2024-02-14T06:49:03;20.83;;;11.50;;
30818;SDS011;17546;42.674;23.284;2024-02-14T06:51:28;18.85;;;12.27;;
30818;SDS011;17546;42.674;23.284;2024-02-14T06:53:55;16.90;;;11.48;;
30818;SDS011;17546;42.674;23.284;2024-02-14T06:56:21;16.67;;;11.27;;
30818;SDS011;17546;42.674;23.284;2024-02-14T06:58:47;24.55;;;10.93;;
30818;SDS011;17546;42.674;23.284;2024-02-14T07:01:17;18.67;;;11.23;;
30818;SDS011;17546;42.674;23.284;2024-02-14T07:03:47;18.92;;;11.07;;
30818;SDS011;17546;42.674;23.284;2024-02-14T07:06:15;19.38;;;10.23;;
30818;SDS011;17546;42.674;23.284;2024-02-14T07:08:42;20.40;;;9.90;;
30818;SDS011;17546;42.674;23.284;2024-02-14T07:11:08;15.68;;;9.50;;
30818;SDS011;17546;42.674;23.284;2024-02-14T07:13:34;21.90;;;9.80;;
30818;SDS011;17546;42.674;23.284;2024-02-14T07:16:01;15.20;;;9.80;;
30818;SDS011;17546;42.674;23.284;2024-02-14T07:18:26;16.83;;;9.73;;
30818;SDS011;17546;42.674;23.284;2024-02-14T07:20:51;15.45;;;9.30;;
30818;SDS011;17546;42.674;23.284;2024-02-14T07:23:18;17.13;;;9.65;;
30818;SDS011;17546;42.674;23.284;2024-02-14T07:25:44;17.33;;;10.48;;
30818;SDS011;17546;42.674;23.284;2024-02-14T07:28:10;14.73;;;9.60;;
30818;SDS011;17546;42.674;23.284;2024-02-14T07:30:35;21.05;;;9.70;;
30818;SDS011;17546;42.674;23.284;2024-02-14T07:33:01;16.88;;;9.95;;
30818;SDS011;17546;42.674;23.284;2024-02-14T07:35:26;14.60;;;9.23;;
30818;SDS011;17546;42.674;23.284;2024-02-14T07:37:52;17.42;;;8.52;;
30818;SDS011;17546;42.674;23.284;2024-02-14T07:40:18;15.80;;;8.15;;
30818;SDS011;17546;42.674;23.284;2024-02-14T07:42:43;18.67;;;9.48;;
30818;SDS011;17546;42.674;23.284;2024-02-14T07:45:09;15.93;;;9.00;;
30818;SDS011;17546;42.674;23.284;2024-02-14T07:47:34;14.05;;;8.13;;
30818;SDS011;17546;42.674;23.284;2024-02-14T07:50:00;20.00;;;9.30;;
30818;SDS011;17546;42.674;23.284;2024-02-14T07:52:25;16.48;;;9.55;;
30818;SDS011;17546;42.674;23.284;2024-02-14T07:54:51;17.05;;;8.95;;
30818;SDS011;17546;42.674;23.284;2024-02-14T07:57:23;15.27;;;9.02;;
30818;SDS011;17546;42.674;23.284;2024-02-14T07:59:50;15.90;;;8.18;;
30818;SDS011;17546;42.674;23.284;2024-02-14T08:02:16;16.75;;;8.52;;
30818;SDS011;17546;42.674;23.284;2024-02-14T08:04:42;18.48;;;9.27;;
30818;SDS011;17546;42.674;23.284;2024-02-14T08:07:08;15.52;;;9.55;;
30818;SDS011;17546;42.674;23.284;2024-02-14T08:09:35;20.10;;;10.55;;
30818;SDS011;17546;42.674;23.284;2024-02-14T08:12:00;13.82;;;9.32;;
30818;SDS011;17546;42.674;23.284;2024-02-14T08:14:26;16.10;;;9.45;;
30818;SDS011;17546;42.674;23.284;2024-02-14T08:16:52;16.88;;;9.32;;
30818;SDS011;17546;42.674;23.284;2024-02-14T08:19:17;13.32;;;8.68;;
30818;SDS011;17546;42.674;23.284;2024-02-14T08:21:43;17.10;;;8.45;;
30818;SDS011;17546;42.674;23.284;2024-02-14T08:24:09;13.63;;;9.27;;
30818;SDS011;17546;42.674;23.284;2024-02-14T08:26:35;14.20;;;8.88;;
30818;SDS011;17546;42.674;23.284;2024-02-14T08:29:00;13.98;;;8.65;;
30818;SDS011;17546;42.674;23.284;2024-02-14T08:31:26;19.80;;;9.70;;
30818;SDS011;17546;42.674;23.284;2024-02-14T08:33:52;14.40;;;8.20;;
30818;SDS011;17546;42.674;23.284;2024-02-14T08:36:18;14.48;;;8.85;;
30818;SDS011;17546;42.674;23.284;2024-02-14T08:38:44;16.73;;;9.00;;
30818;SDS011;17546;42.674;23.284;2024-02-14T08:41:09;15.63;;;8.32;;
30818;SDS011;17546;42.674;23.284;2024-02-14T08:43:35;14.00;;;7.78;;
30818;SDS011;17546;42.674;23.284;2024-02-14T08:46:00;15.70;;;7.72;;
30818;SDS011;17546;42.674;23.284;2024-02-14T08:48:26;13.02;;;7.78;;
30818;SDS011;17546;42.674;23.284;2024-02-14T08:50:54;16.83;;;7.80;;
30818;SDS011;17546;42.674;23.284;2024-02-14T08:53:19;15.13;;;7.40;;
30818;SDS011;17546;42.674;23.284;2024-02-14T08:55:46;16.25;;;8.48;;
30818;SDS011;17546;42.674;23.284;2024-02-14T08:58:11;17.85;;;8.10;;
30818;SDS011;17546;42.674;23.284;2024-02-14T09:00:37;13.60;;;8.80;;
30818;SDS011;17546;42.674;23.284;2024-02-14T09:03:04;12.25;;;7.20;;
30818;SDS011;17546;42.674;23.284;2024-02-14T09:05:31;13.88;;;8.77;;
30818;SDS011;17546;42.674;23.284;2024-02-14T09:07:57;16.90;;;7.50;;
30818;SDS011;17546;42.674;23.284;2024-02-14T09:10:23;13.60;;;8.00;;
30818;SDS011;17546;42.674;23.284;2024-02-14T09:12:48;15.40;;;8.23;;
30818;SDS011;17546;42.674;23.284;2024-02-14T09:15:14;13.68;;;8.15;;
30818;SDS011;17546;42.674;23.284;2024-02-14T09:17:40;14.02;;;8.48;;
30818;SDS011;17546;42.674;23.284;2024-02-14T09:20:07;13.65;;;8.70;;
30818;SDS011;17546;42.674;23.284;2024-02-14T09:22:37;13.82;;;9.02;;
30818;SDS011;17546;42.674;23.284;2024-02-14T09:25:03;16.30;;;8.00;;
30818;SDS011;17546;42.674;23.284;2024-02-14T09:27:32;14.05;;;8.15;;
30818;SDS011;17546;42.674;23.284;2024-02-14T09:29:59;17.33;;;8.93;;
30818;SDS011;17546;42.674;23.284;2024-02-14T09:32:24;15.75;;;8.35;;
30818;SDS011;17546;42.674;23.284;2024-02-14T09:34:50;14.68;;;8.55;;
30818;SDS011;17546;42.674;23.284;2024-02-14T09:37:16;17.42;;;8.80;;
30818;SDS011;17546;42.674;23.284;2024-02-14T09:39:41;15.57;;;9.50;;
30818;SDS011;17546;42.674;23.284;2024-02-14T09:42:09;15.98;;;8.88;;
30818;SDS011;17546;42.674;23.284;2024-02-14T09:44:38;12.95;;;8.00;;
30818;SDS011;17546;42.674;23.284;2024-02-14T09:47:05;14.40;;;9.02;;
30818;SDS011;17546;42.674;23.284;2024-02-14T09:49:31;16.90;;;8.15;;
30818;SDS011;17546;42.674;23.284;2024-02-14T09:51:57;14.82;;;8.07;;
30818;SDS011;17546;42.674;23.284;2024-02-14T09:54:24;12.50;;;8.05;;
30818;SDS011;17546;42.674;23.284;2024-02-14T09:56:51;17.35;;;8.00;;
30818;SDS011;17546;42.674;23.284;2024-02-14T09:59:21;15.07;;;8.98;;
30818;SDS011;17546;42.674;23.284;2024-02-14T10:01:47;12.77;;;7.97;;
30818;SDS011;17546;42.674;23.284;2024-02-14T10:04:15;12.50;;;7.75;;
30818;SDS011;17546;42.674;23.284;2024-02-14T10:06:43;18.02;;;9.07;;
30818;SDS011;17546;42.674;23.284;2024-02-14T10:09:08;18.20;;;7.78;;
30818;SDS011;17546;42.674;23.284;2024-02-14T10:11:35;14.52;;;8.38;;
30818;SDS011;17546;42.674;23.284;2024-02-14T10:14:01;14.60;;;7.85;;
30818;SDS011;17546;42.674;23.284;2024-02-14T10:16:28;15.20;;;8.20;;
30818;SDS011;17546;42.674;23.284;2024-02-14T10:18:54;17.98;;;9.20;;
30818;SDS011;17546;42.674;23.284;2024-02-14T10:21:21;12.95;;;8.13;;
30818;SDS011;17546;42.674;23.284;2024-02-14T10:23:47;12.15;;;6.63;;
30818;SDS011;17546;42.674;23.284;2024-02-14T10:26:14;16.52;;;8.23;;
30818;SDS011;17546;42.674;23.284;2024-02-14T10:28:43;13.82;;;7.60;;
30818;SDS011;17546;42.674;23.284;2024-02-14T10:31:10;11.98;;;7.30;;
30818;SDS011;17546;42.674;23.284;2024-02-14T10:33:36;12.27;;;8.05;;
30818;SDS011;17546;42.674;23.284;2024-02-14T10:36:02;7.47;;;4.53;;
30818;SDS011;17546;42.674;23.284;2024-02-14T10:38:32;17.23;;;8.65;;
30818;SDS011;17546;42.674;23.284;2024-02-14T10:40:59;13.82;;;8.38;;
30818;SDS011;17546;42.674;23.284;2024-02-14T10:43:25;15.52;;;7.03;;
30818;SDS011;17546;42.674;23.284;2024-02-14T10:45:52;11.95;;;6.10;;
30818;SDS011;17546;42.674;23.284;2024-02-14T10:48:19;12.98;;;7.25;;
30818;SDS011;17546;42.674;23.284;2024-02-14T10:50:50;16.27;;;7.85;;
30818;SDS011;17546;42.674;23.284;2024-02-14T10:53:18;22.65;;;8.40;;
30818;SDS011;17546;42.674;23.284;2024-02-14T10:55:45;11.27;;;7.22;;
30818;SDS011;17546;42.674;23.284;2024-02-14T10:58:13;16.83;;;7.88;;
30818;SDS011;17546;42.674;23.284;2024-02-14T11:00:41;14.88;;;6.75;;
30818;SDS011;17546;42.674;23.284;2024-02-14T11:03:08;13.73;;;7.40;;
30818;SDS011;17546;42.674;23.284;2024-02-14T11:05:44;16.80;;;7.95;;
30818;SDS011;17546;42.674;23.284;2024-02-14T11:08:13;14.38;;;7.40;;
30818;SDS011;17546;42.674;23.284;2024-02-14T11:10:56;13.88;;;8.05;;
30818;SDS011;17546;42.674;23.284;2024-02-14T11:13:27;13.20;;;7.63;;
30818;SDS011;17546;42.674;23.284;2024-02-14T11:15:54;13.48;;;7.95;;
30818;SDS011;17546;42.674;23.284;2024-02-14T11:18:27;14.05;;;8.40;;
30818;SDS011;17546;42.674;23.284;2024-02-14T11:20:55;14.82;;;8.35;;
30818;SDS011;17546;42.674;23.284;2024-02-14T11:23:22;12.98;;;7.53;;
30818;SDS011;17546;42.674;23.284;2024-02-14T11:25:49;13.05;;;7.03;;
30818;SDS011;17546;42.674;23.284;2024-02-14T11:28:18;15.27;;;8.43;;
30818;SDS011;17546;42.674;23.284;2024-02-14T11:30:48;13.20;;;8.20;;
30818;SDS011;17546;42.674;23.284;2024-02-14T11:33:21;12.25;;;7.60;;
30818;SDS011;17546;42.674;23.284;2024-02-14T11:35:52;10.43;;;7.28;;
30818;SDS011;17546;42.674;23.284;2024-02-14T11:38:19;15.85;;;8.55;;
30818;SDS011;17546;42.674;23.284;2024-02-14T11:40:45;12.40;;;7.88;;
30818;SDS011;17546;42.674;23.284;2024-02-14T11:43:14;16.23;;;9.27;;
30818;SDS011;17546;42.674;23.284;2024-02-14T11:45:48;13.68;;;8.20;;
30818;SDS011;17546;42.674;23.284;2024-02-14T11:48:17;14.52;;;7.93;;
30818;SDS011;17546;42.674;23.284;2024-02-14T11:50:45;15.80;;;8.45;;
30818;SDS011;17546;42.674;23.284;2024-02-14T11:53:11;15.85;;;8.52;;
30818;SDS011;17546;42.674;23.284;2024-02-14T11:55:39;14.73;;;8.30;;
30818;SDS011;17546;42.674;23.284;2024-02-14T11:58:09;16.02;;;9.02;;
30818;SDS011;17546;42.674;23.284;2024-02-14T12:00:39;17.27;;;8.45;;
30818;SDS011;17546;42.674;23.284;2024-02-14T12:03:06;16.58;;;7.85;;
30818;SDS011;17546;42.674;23.284;2024-02-14T12:05:34;13.52;;;8.50;;
30818;SDS011;17546;42.674;23.284;2024-02-14T12:08:02;14.30;;;8.82;;
30818;SDS011;17546;42.674;23.284;2024-02-14T12:10:30;23.27;;;8.52;;
30818;SDS011;17546;42.674;23.284;2024-02-14T12:12:56;14.63;;;8.07;;
30818;SDS011;17546;42.674;23.284;2024-02-14T12:15:22;13.55;;;7.82;;
30818;SDS011;17546;42.674;23.284;2024-02-14T12:17:47;21.85;;;8.32;;
30818;SDS011;17546;42.674;23.284;2024-02-14T12:20:14;18.58;;;8.02;;
30818;SDS011;17546;42.674;23.284;2024-02-14T12:22:40;17.38;;;9.05;;
30818;SDS011;17546;42.674;23.284;2024-02-14T12:25:06;17.50;;;7.93;;
30818;SDS011;17546;42.674;23.284;2024-02-14T12:27:36;18.58;;;8.05;;
30818;SDS011;17546;42.674;23.284;2024-02-14T12:30:05;14.27;;;8.45;;
30818;SDS011;17546;42.674;23.284;2024-02-14T12:32:33;19.38;;;8.57;;
30818;SDS011;17546;42.674;23.284;2024-02-14T12:34:59;16.80;;;8.43;;
30818;SDS011;17546;42.674;23.284;2024-02-14T12:37:24;18.30;;;8.13;;
30818;SDS011;17546;42.674;23.284;2024-02-14T12:39:50;18.48;;;8.90;;
30818;SDS011;17546;42.674;23.284;2024-02-14T12:42:16;17.58;;;8.55;;
30818;SDS011;17546;42.674;23.284;2024-02-14T12:44:43;20.90;;;9.85;;
30818;SDS011;17546;42.674;23.284;2024-02-14T12:47:09;19.85;;;9.60;;
30818;SDS011;17546;42.674;23.284;2024-02-14T12:49:35;18.23;;;8.43;;
30818;SDS011;17546;42.674;23.284;2024-02-14T12:52:01;15.40;;;7.70;;
30818;SDS011;17546;42.674;23.284;2024-02-14T12:54:27;16.77;;;8.25;;
30818;SDS011;17546;42.674;23.284;2024-02-14T12:56:52;17.50;;;8.15;;
30818;SDS011;17546;42.674;23.284;2024-02-14T12:59:18;15.98;;;8.45;;
30818;SDS011;17546;42.674;23.284;2024-02-14T13:01:44;17.73;;;8.02;;
30818;SDS011;17546;42.674;23.284;2024-02-14T13:04:09;19.95;;;8.20;;
30818;SDS011;17546;42.674;23.284;2024-02-14T13:06:35;13.57;;;7.40;;
30818;SDS011;17546;42.674;23.284;2024-02-14T13:09:03;17.17;;;7.30;;
30818;SDS011;17546;42.674;23.284;2024-02-14T13:11:31;20.13;;;7.60;;
30818;SDS011;17546;42.674;23.284;2024-02-14T13:13:57;15.70;;;8.15;;
30818;SDS011;17546;42.674;23.284;2024-02-14T13:16:23;27.55;;;9.02;;
30818;SDS011;17546;42.674;23.284;2024-02-14T13:18:48;15.48;;;7.72;;
30818;SDS011;17546;42.674;23.284;2024-02-14T13:21:14;14.30;;;7.00;;
30818;SDS011;17546;42.674;23.284;2024-02-14T13:23:41;13.93;;;7.40;;
30818;SDS011;17546;42.674;23.284;2024-02-14T13:26:07;17.73;;;7.35;;
30818;SDS011;17546;42.674;23.284;2024-02-14T13:28:33;13.88;;;6.80;;
30818;SDS011;17546;42.674;23.284;2024-02-14T13:30:58;13.30;;;7.25;;
30818;SDS011;17546;42.674;23.284;2024-02-14T13:33:24;14.90;;;7.55;;
30818;SDS011;17546;42.674;23.284;2024-02-14T13:35:49;17.88;;;7.22;;
30818;SDS011;17546;42.674;23.284;2024-02-14T13:38:15;12.63;;;7.15;;
30818;SDS011;17546;42.674;23.284;2024-02-14T13:40:42;14.00;;;6.97;;
30818;SDS011;17546;42.674;23.284;2024-02-14T13:43:08;13.90;;;7.07;;
30818;SDS011;17546;42.674;23.284;2024-02-14T13:45:41;16.77;;;7.18;;
30818;SDS011;17546;42.674;23.284;2024-02-14T13:48:07;19.23;;;7.20;;
30818;SDS011;17546;42.674;23.284;2024-02-14T13:50:34;16.33;;;7.38;;
30818;SDS011;17546;42.674;23.284;2024-02-14T13:53:00;17.23;;;7.50;;
30818;SDS011;17546;42.674;23.284;2024-02-14T13:55:25;14.43;;;7.22;;
30818;SDS011;17546;42.674;23.284;2024-02-14T13:57:51;13.60;;;7.20;;
30818;SDS011;17546;42.674;23.284;2024-02-14T14:00:16;17.33;;;7.00;;
30818;SDS011;17546;42.674;23.284;2024-02-14T14:02:42;24.52;;;8.50;;
30818;SDS011;17546;42.674;23.284;2024-02-14T14:05:08;36.25;;;7.85;;
30818;SDS011;17546;42.674;23.284;2024-02-14T14:07:35;24.05;;;8.93;;
30818;SDS011;17546;42.674;23.284;2024-02-14T14:10:04;18.13;;;8.93;;
30818;SDS011;17546;42.674;23.284;2024-02-14T14:12:30;21.08;;;9.40;;
30818;SDS011;17546;42.674;23.284;2024-02-14T14:14:56;16.83;;;9.18;;